Allenwood, PA

6:27 AM EDT on October 02, 2014 (GMT -0400)
Elimsport | Change Station
CLOSE
Current Station
Personal Weather Station
Location: Montgomery, PA
Elevation: 643 ft
Nearby Weather Stations

Elev 643 ft 41.17 °N, 76.98 °W | Updated 5 seconds ago

Mostly Cloudy
Mostly Cloudy
55.0 °F
Feels Like 55.0 °F
N
0.0
Wind Variable Wind from ENE
Gusts 0.0 mph

Today
High -- | Low -- °F
--% Chance of Precip.
Yesterday
High -- | Low -- °F
Precip. -- in
7:05 AM 6:48 PM
First Quarter, 57% visible
Pressure 30.10 in
Visibility 0.5 miles
Clouds Overcast 200 ft
Dew Point 55 °F
Humidity 99%
Rainfall 0.00 in
Snow Depth Not available.
UV 0 out of 12
Pollen 1.70 out of 12
Air Quality Not available.
Flu Activity Not available.
SPECI KIPT 021023Z 00000KT 1/2SM FG OVC002 13/12 A3010 RMK AO2 T01330117

More Conditions Fewer Conditions

Pressure 30.10 in
Visibility 0.5 miles
Clouds Overcast 200 ft
Dew Point 55 °F
Humidity 99%
Rainfall 0.00 in
Snow Depth Not available.
UV 0 out of 12
Pollen 1.70 out of 12
Air Quality Not available.
Flu Activity Not available.
SPECI KIPT 021023Z 00000KT 1/2SM FG OVC002 13/12 A3010 RMK AO2 T01330117

More Conditions Fewer Conditions

Nowcast | as of 4:59 am EDT on October 2, 2014

Areas of dense fog will be across the area into mid morning. Persons traveling should be alert for a large variation in conditions and allow extra travel time. Persons should also use low beams in areas of dense fog. The fog should burn off by 10 am.

×

10-Day Weather Forecast

Almanac

Astronomy

Oct. 02, 2014 Rise Set
Actual Time 7:05 AM EDT 6:48 PM EDT
Civil Twilight 6:38 AM EDT 7:15 PM EDT
Nautical Twilight 6:06 AM EDT 7:47 PM EDT
Astronomical Twilight 5:34 AM EDT 8:19 PM EDT
Moon 2:55 PM EDT 12:17 AM EDT
Length of Visible Light 12h 37m
Length of Day
11h 42m
Tomorrow will be 2m 42s shorter.
First Quarter, 57% of the Moon is Illuminated
Today
First Quarter
Oct 8
Full
Oct 15
Last Quarter
Oct 23
New
Oct 30
First Quarter

Today's Extremes

State Highs State Lows

Community

WunderPhotos

Upload Photos

1,758,209 photos uploaded!

WunderBlogs® & News

Nearby

Snow Depth

Station Depth Elevation
No new snow has been reported.

Earthquake Activity

City Distance Mag. Time & Date
No recent earthquake activity has been reported nearby.
Minimum magnitude displayed is 2.5.

Coastal Water Temperatures

Place Temperature
No Stations Reporting

Nearby Weather Stations